Time;durP1;ratioP1;P1;durP2;ratioP2;P2;SDS_P1;SDS_P2;PMS_P1;PMS_P2;Temp;Humidity;BMP_temperature;BMP_pressure;BME280_temperature;BME280_humidity;BME280_pressure;Samples;Min_cycle;Max_cycle;Signal;HPM_P1;HPM_P2
2022/05/16 00:00:34;;;;;;;;;;;;;;;12.81;51.28;100462.65;1743350;82;20239;-56
2022/05/16 00:03:41;;;;;;;;;;;;;;;12.76;51.35;100463.73;1743416;82;20180;-57
2022/05/16 00:06:48;;;;;;;;;;;;;;;12.69;51.41;100458.64;1743490;82;20204;-59
2022/05/16 00:09:54;;;;;;;;;;;;;;;12.62;51.47;100462.65;1743602;82;20207;-56
2022/05/16 00:13:02;;;;;;;;;;;;;;;12.56;51.52;100469.44;1743529;82;20220;-57
2022/05/16 00:16:07;;;;;;;;;;;;;;;12.48;51.59;100472.27;1743396;82;20200;-57
2022/05/16 00:19:11;;;;;;;;;;;;;;;12.43;51.68;100470.59;1743329;82;20208;-58
2022/05/16 00:22:17;;;;;;;;;;;;;;;12.38;51.76;100477.15;1744619;82;20203;-57
2022/05/16 00:25:24;;;;;;;;;;;;;;;12.33;51.81;100471.36;1744814;82;20240;-57
2022/05/16 00:28:28;;;;;;;;;;;;;;;12.27;51.90;100474.84;1744741;82;20231;-57
2022/05/16 00:31:33;;;;;;;;;;;;;;;12.20;52.00;100474.72;1743942;80;20186;-58
2022/05/16 00:34:39;;;;;;;;;;;;;;;12.15;52.08;100478.53;1744909;82;20188;-57
2022/05/16 00:37:43;;;;;;;;;;;;;;;12.08;52.17;100473.97;1743163;82;20212;-56
2022/05/16 00:40:47;;;;;;;;;;;;;;;12.01;52.23;100480.20;1744663;81;20583;-58
2022/05/16 00:43:58;;;;;;;;;;;;;;;11.93;52.29;100483.50;1742966;82;20504;-57
2022/05/16 00:47:02;;;;;;;;;;;;;;;11.87;52.40;100485.09;1741071;82;20587;-57
2022/05/16 00:50:08;;;;;;;;;;;;;;;11.81;52.48;100486.34;1745367;81;20180;-59
2022/05/16 00:53:16;;;;;;;;;;;;;;;11.73;52.58;100485.02;1745092;82;20240;-58
2022/05/16 00:56:22;;;;;;;;;;;;;;;11.66;52.67;100490.88;1734694;82;20196;-57
2022/05/16 00:59:27;;;;;;;;;;;;;;;11.60;52.75;100496.55;1742696;82;20184;-58
2022/05/16 01:05:57;;;;;;;;;;;;;;;11.48;52.95;100505.34;1742746;82;20208;-58
2022/05/16 01:09:00;;;;;;;;;;;;;;;11.42;53.04;100504.66;1743675;82;20516;-57
2022/05/16 01:12:06;;;;;;;;;;;;;;;11.36;53.14;100505.38;1744390;82;20224;-57
2022/05/16 01:15:14;;;;;;;;;;;;;;;11.30;53.21;100506.10;1743629;81;20195;-57
2022/05/16 01:18:21;;;;;;;;;;;;;;;11.26;53.33;100514.32;1743445;82;20540;-57
2022/05/16 01:21:47;;;;;;;;;;;;;;;11.20;53.41;100520.01;1743424;82;20180;-57
2022/05/16 01:24:52;;;;;;;;;;;;;;;11.15;53.48;100517.44;1743300;82;20536;-57
2022/05/16 01:28:04;;;;;;;;;;;;;;;11.09;53.57;100515.41;1736674;82;20188;-57
2022/05/16 01:31:10;;;;;;;;;;;;;;;11.03;53.66;100516.13;1744423;80;20191;-57
2022/05/16 01:34:15;;;;;;;;;;;;;;;10.97;53.76;100515.46;1743308;82;20713;-57
2022/05/16 01:38:18;;;;;;;;;;;;;;;10.94;53.84;100525.40;1743742;82;20541;-56
2022/05/16 01:40:26;;;;;;;;;;;;;;;10.88;53.95;100527.48;1743631;82;20541;-57
2022/05/16 01:43:34;;;;;;;;;;;;;;;10.84;54.03;100532.44;1744095;82;20208;-56
2022/05/16 01:46:41;;;;;;;;;;;;;;;10.79;54.14;100537.58;1743156;82;20529;-57
2022/05/16 01:49:46;;;;;;;;;;;;;;;10.76;54.21;100537.92;1683225;84;20200;-58
2022/05/16 01:52:51;;;;;;;;;;;;;;;10.71;54.31;100536.22;1701792;83;20216;-58
2022/05/16 01:55:56;;;;;;;;;;;;;;;10.66;54.38;100538.61;1700430;83;20212;-57
2022/05/16 01:59:02;;;;;;;;;;;;;;;10.61;54.46;100536.90;1699695;83;20221;-58
2022/05/16 02:02:09;;;;;;;;;;;;;;;10.56;54.50;100538.79;1700557;83;20204;-58
2022/05/16 02:05:16;;;;;;;;;;;;;;;10.51;54.59;100546.66;1685554;84;20256;-55
2022/05/16 02:08:23;;;;;;;;;;;;;;;10.48;54.67;100555.75;1701657;83;20529;-58
2022/05/16 02:11:28;;;;;;;;;;;;;;;10.44;54.74;100555.23;1701583;84;20236;-58
2022/05/16 02:14:33;;;;;;;;;;;;;;;10.41;54.85;100558.81;1701589;84;20197;-58
2022/05/16 02:17:38;;;;;;;;;;;;;;;10.38;54.93;100559.16;1701751;84;20193;-58
2022/05/16 02:20:45;;;;;;;;;;;;;;;10.35;55.01;100562.23;1701659;84;20212;-58
2022/05/16 02:27:16;;;;;;;;;;;;;;;10.32;55.18;100568.88;1701810;84;20241;-59
2022/05/16 02:30:25;;;;;;;;;;;;;;;10.31;55.24;100571.29;1701640;84;20602;-58
2022/05/16 02:33:29;;;;;;;;;;;;;;;10.28;55.31;100577.10;1697182;81;20529;-58
2022/05/16 02:36:35;;;;;;;;;;;;;;;10.27;55.36;100584.98;1693823;84;20225;-58
2022/05/16 02:39:44;;;;;;;;;;;;;;;10.27;55.44;100577.28;1694059;84;20285;-57
2022/05/16 02:42:48;;;;;;;;;;;;;;;10.26;55.51;100581.88;1743439;82;20208;-57
2022/05/16 02:45:56;;;;;;;;;;;;;;;10.25;55.58;100576.08;1744295;82;20251;-56
2022/05/16 02:49:01;;;;;;;;;;;;;;;10.27;55.68;100582.24;1759187;81;20577;-56
2022/05/16 02:52:06;;;;;;;;;;;;;;;10.27;55.75;100578.14;1774521;80;20233;-57
2022/05/16 02:55:13;;;;;;;;;;;;;;;10.31;55.83;100588.20;1774054;80;20213;-59
2022/05/16 02:58:19;;;;;;;;;;;;;;;10.34;55.89;100586.50;1774198;80;20182;-58
2022/05/16 03:01:23;;;;;;;;;;;;;;;10.38;55.98;100587.89;1774328;80;20197;-57
2022/05/16 03:04:29;;;;;;;;;;;;;;;10.41;56.05;100585.67;1773996;80;20182;-58
2022/05/16 03:07:35;;;;;;;;;;;;;;;10.46;56.11;100598.31;1774206;80;20197;-58
2022/05/16 03:10:39;;;;;;;;;;;;;;;10.53;56.18;100591.64;1773902;80;20604;-56
2022/05/16 03:13:45;;;;;;;;;;;;;;;10.58;56.22;100592.53;1774109;80;20210;-58
2022/05/16 03:16:51;;;;;;;;;;;;;;;10.63;56.26;100592.84;1773942;81;20343;-58
2022/05/16 03:19:55;;;;;;;;;;;;;;;10.68;56.30;100594.56;1773897;80;20539;-59
2022/05/16 03:23:02;;;;;;;;;;;;;;;10.73;56.33;100597.64;1774522;80;20619;-59
2022/05/16 03:26:08;;;;;;;;;;;;;;;10.78;56.40;100600.23;1774016;80;20217;-56
2022/05/16 03:29:16;;;;;;;;;;;;;;;10.84;56.42;100599.53;1773813;81;20181;-57
2022/05/16 03:32:21;;;;;;;;;;;;;;;10.90;56.49;100601.58;1689797;84;20206;-57
2022/05/16 03:35:29;;;;;;;;;;;;;;;10.97;56.55;100601.74;1773512;80;20202;-58
2022/05/16 03:42:02;;;;;;;;;;;;;;;11.10;56.61;100602.91;1738360;82;20212;-60
2022/05/16 03:45:06;;;;;;;;;;;;;;;11.18;56.68;100605.63;1738204;82;20255;-58
2022/05/16 03:48:14;;;;;;;;;;;;;;;11.26;56.73;100606.99;1738350;82;20208;-58
2022/05/16 03:51:20;;;;;;;;;;;;;;;11.34;56.74;100604.73;1738404;82;20544;-58
2022/05/16 03:54:24;;;;;;;;;;;;;;;11.42;56.77;100604.21;1738350;82;20204;-58
2022/05/16 03:57:30;;;;;;;;;;;;;;;11.51;56.82;100621.50;1738750;82;20185;-59
2022/05/16 04:00:35;;;;;;;;;;;;;;;11.58;56.86;100614.27;1738599;82;20247;-58
2022/05/16 04:03:43;;;;;;;;;;;;;;;11.67;56.92;100611.89;1738013;82;20567;-58
2022/05/16 04:06:50;;;;;;;;;;;;;;;11.75;56.93;100617.31;1738727;82;20642;-58
2022/05/16 04:09:57;;;;;;;;;;;;;;;11.82;56.94;100608.22;1738856;82;20252;-58
2022/05/16 04:13:03;;;;;;;;;;;;;;;11.90;56.99;100618.29;1738829;82;20200;-58
2022/05/16 04:16:08;;;;;;;;;;;;;;;11.97;57.02;100613.27;1738313;82;20204;-58
2022/05/16 04:19:14;;;;;;;;;;;;;;;12.08;57.06;100615.61;1738327;82;20215;-57
2022/05/16 04:22:20;;;;;;;;;;;;;;;12.18;57.05;100637.34;1738316;82;20267;-57
2022/05/16 04:25:26;;;;;;;;;;;;;;;12.26;57.02;100626.86;1738281;82;20576;-58
2022/05/16 04:28:29;;;;;;;;;;;;;;;12.31;57.04;100624.40;1738079;82;20206;-58
2022/05/16 04:31:34;;;;;;;;;;;;;;;12.38;57.05;100630.38;1738753;82;20524;-57
2022/05/16 04:34:40;;;;;;;;;;;;;;;12.45;57.01;100639.58;1738942;82;20212;-61
2022/05/16 04:37:51;;;;;;;;;;;;;;;12.51;57.02;100627.03;1774459;79;20218;-61
2022/05/16 04:44:18;;;;;;;;;;;;;;;12.65;57.06;100614.74;1772385;81;20219;-62
2022/05/16 04:47:23;;;;;;;;;;;;;;;12.77;57.12;100614.62;1772407;81;20686;-62
2022/05/16 04:50:32;;;;;;;;;;;;;;;12.87;57.08;100616.62;1773063;81;20223;-62
2022/05/16 04:53:37;;;;;;;;;;;;;;;12.96;57.04;100628.38;1744908;81;20560;-61
2022/05/16 04:56:43;;;;;;;;;;;;;;;13.03;56.97;100628.84;1708288;84;20218;-61
2022/05/16 04:59:49;;;;;;;;;;;;;;;13.10;56.95;100627.08;1707013;84;20226;-59
2022/05/16 05:02:57;;;;;;;;;;;;;;;13.16;56.97;100618.62;1706925;83;20498;-60
2022/05/16 05:06:03;;;;;;;;;;;;;;;13.24;56.95;100624.04;1719044;82;20217;-58
2022/05/16 05:09:10;;;;;;;;;;;;;;;13.27;56.90;100629.99;1717770;82;20280;-57
2022/05/16 05:15:49;;;;;;;;;;;;;;;13.44;56.89;100639.81;1709305;83;20215;-56
2022/05/16 05:18:55;;;;;;;;;;;;;;;13.52;56.87;100642.44;1720663;82;20590;-55
2022/05/16 05:22:03;;;;;;;;;;;;;;;13.62;56.81;100649.58;1729022;83;20242;-55
2022/05/16 05:25:11;;;;;;;;;;;;;;;13.72;56.76;100643.26;1723753;82;20245;-55
2022/05/16 05:28:28;;;;;;;;;;;;;;;13.82;56.70;100650.72;1706010;82;20246;-56
2022/05/16 05:31:32;;;;;;;;;;;;;;;13.93;56.58;100648.86;1708015;82;20229;-55
2022/05/16 05:34:36;;;;;;;;;;;;;;;14.01;56.42;100647.38;1718630;83;20206;-56
2022/05/16 05:37:42;;;;;;;;;;;;;;;14.11;56.40;100645.20;1722681;81;20255;-56
2022/05/16 05:40:50;;;;;;;;;;;;;;;14.23;56.37;100650.02;1736406;82;20212;-55
2022/05/16 05:43:56;;;;;;;;;;;;;;;14.34;56.21;100648.69;1736686;82;20236;-57
2022/05/16 05:47:05;;;;;;;;;;;;;;;14.45;56.13;100652.31;1736872;82;20255;-56
2022/05/16 05:50:13;;;;;;;;;;;;;;;14.61;56.05;100658.97;1702606;82;20212;-57
2022/05/16 05:53:18;;;;;;;;;;;;;;;14.69;55.84;100650.58;1736757;82;20628;-55
2022/05/16 05:56:24;;;;;;;;;;;;;;;14.77;55.65;100643.56;1734239;82;20243;-55
2022/05/16 05:59:30;;;;;;;;;;;;;;;14.86;55.48;100649.27;1737745;81;20184;-56
2022/05/16 06:02:40;;;;;;;;;;;;;;;14.96;55.32;100653.42;1737122;82;20850;-59
2022/05/16 06:05:47;;;;;;;;;;;;;;;15.08;55.25;100647.37;1719075;82;20235;-61
2022/05/16 06:08:54;;;;;;;;;;;;;;;15.20;55.13;100646.63;1721825;82;20239;-59
2022/05/16 06:11:59;;;;;;;;;;;;;;;15.30;54.93;100652.63;1736870;82;20216;-58
2022/05/16 06:15:02;;;;;;;;;;;;;;;15.39;54.72;100654.77;1736224;82;20607;-56
2022/05/16 06:18:08;;;;;;;;;;;;;;;15.47;54.61;100648.58;1736198;82;20271;-56
2022/05/16 06:21:13;;;;;;;;;;;;;;;15.57;54.43;100657.34;1734236;82;20272;-57
2022/05/16 06:27:42;;;;;;;;;;;;;;;15.72;54.11;100639.29;1737696;82;20630;-57
2022/05/16 06:30:50;;;;;;;;;;;;;;;15.79;53.90;100640.20;1737109;82;20251;-58
2022/05/16 06:33:56;;;;;;;;;;;;;;;15.88;53.77;100634.31;1737910;82;20248;-60
2022/05/16 06:37:01;;;;;;;;;;;;;;;15.99;53.64;100654.44;1737582;82;20235;-58
2022/05/16 06:40:07;;;;;;;;;;;;;;;16.04;53.39;100647.78;1736385;81;20543;-59
2022/05/16 06:43:15;;;;;;;;;;;;;;;16.10;53.15;100642.81;1705226;83;20207;-60
2022/05/16 06:46:20;;;;;;;;;;;;;;;16.13;52.97;100643.78;1713411;82;20558;-61
2022/05/16 06:49:25;;;;;;;;;;;;;;;16.19;52.73;100647.61;1707359;83;20617;-64
2022/05/16 06:52:31;;;;;;;;;;;;;;;16.22;52.59;100648.61;1714548;82;20218;-60
2022/05/16 06:55:37;;;;;;;;;;;;;;;16.25;52.43;100644.88;1725203;83;20218;-62
2022/05/16 06:58:45;;;;;;;;;;;;;;;16.31;52.25;100637.70;1721810;82;20586;-61
2022/05/16 07:02:05;;;;;;;;;;;;;;;16.34;52.11;100654.72;1736551;82;20243;-59
2022/05/16 07:05:12;;;;;;;;;;;;;;;16.39;51.91;100641.11;1737345;82;20208;-61
2022/05/16 07:08:19;;;;;;;;;;;;;;;16.47;51.76;100655.84;1736654;82;20248;-61
2022/05/16 07:11:25;;;;;;;;;;;;;;;16.53;51.58;100648.97;1736279;82;20207;-62
2022/05/16 07:14:34;;;;;;;;;;;;;;;16.62;51.44;100653.23;1736293;82;20216;-61
2022/05/16 07:17:39;;;;;;;;;;;;;;;16.70;51.27;100650.84;1736657;82;20582;-61
2022/05/16 07:20:46;;;;;;;;;;;;;;;16.82;51.10;100646.38;1737060;82;20224;-63
2022/05/16 07:23:51;;;;;;;;;;;;;;;16.88;50.85;100642.77;1737165;82;20208;-61
2022/05/16 07:30:23;;;;;;;;;;;;;;;16.98;50.42;100658.44;1694077;85;20197;-61
2022/05/16 07:33:28;;;;;;;;;;;;;;;17.03;50.24;100647.05;1692759;84;20562;-61
2022/05/16 07:36:34;;;;;;;;;;;;;;;17.12;50.13;100651.85;1700018;84;20553;-61
2022/05/16 07:39:41;;;;;;;;;;;;;;;17.23;49.94;100644.30;1699833;81;20254;-60
2022/05/16 07:42:46;;;;;;;;;;;;;;;17.30;49.72;100638.25;1692961;84;20280;-61
2022/05/16 07:45:53;;;;;;;;;;;;;;;17.36;49.52;100649.84;1692960;84;20217;-62
2022/05/16 07:49:00;;;;;;;;;;;;;;;17.38;49.28;100640.77;1711904;83;20211;-61
2022/05/16 07:52:09;;;;;;;;;;;;;;;17.42;49.09;100636.01;1712245;83;20211;-61
2022/05/16 07:55:15;;;;;;;;;;;;;;;17.50;48.92;100660.73;1717926;83;20215;-62
2022/05/16 07:58:21;;;;;;;;;;;;;;;17.47;48.67;100650.06;1705637;83;20247;-61
2022/05/16 08:01:28;;;;;;;;;;;;;;;17.48;48.48;100637.09;1720031;83;20274;-64
2022/05/16 08:04:42;;;;;;;;;;;;;;;17.61;48.36;100627.39;1708125;83;20254;-63
2022/05/16 08:11:17;;;;;;;;;;;;;;;17.86;48.08;100631.16;1722242;83;20246;-61
2022/05/16 08:14:38;;;;;;;;;;;;;;;18.00;47.88;100625.90;1715835;83;20211;-64
2022/05/16 08:17:49;;;;;;;;;;;;;;;18.15;47.65;100629.80;1713707;83;20218;-63
2022/05/16 08:21:08;;;;;;;;;;;;;;;18.21;47.40;100632.55;1717864;83;20210;-62
2022/05/16 08:24:14;;;;;;;;;;;;;;;18.27;47.21;100639.98;1699727;83;20660;-56
2022/05/16 08:27:23;;;;;;;;;;;;;;;18.33;47.05;100634.11;1692191;84;20209;-62
2022/05/16 08:30:31;;;;;;;;;;;;;;;18.33;46.78;100634.94;1692635;84;20569;-63
2022/05/16 08:33:38;;;;;;;;;;;;;;;18.43;46.66;100628.43;1692654;84;20565;-62
2022/05/16 08:40:08;;;;;;;;;;;;;;;18.62;46.27;100636.32;1705991;83;20547;-59
2022/05/16 08:43:28;;;;;;;;;;;;;;;18.70;45.98;100631.38;1698841;84;20228;-56
2022/05/16 08:46:55;;;;;;;;;;;;;;;18.81;45.85;100634.83;1756492;81;20224;-59
2022/05/16 08:50:05;;;;;;;;;;;;;;;18.95;45.61;100640.60;1759165;80;20247;-62
2022/05/16 08:53:39;;;;;;;;;;;;;;;18.86;45.32;100642.48;1760362;80;20235;-61
2022/05/16 08:57:14;;;;;;;;;;;;;;;18.92;45.19;100628.56;1759838;81;20678;-61
2022/05/16 09:00:24;;;;;;;;;;;;;;;19.09;45.03;100635.83;1759442;79;20240;-64
2022/05/16 09:03:37;;;;;;;;;;;;;;;19.24;44.88;100637.19;1759508;80;20208;-64
2022/05/16 09:07:14;;;;;;;;;;;;;;;19.46;44.67;100621.53;1758811;81;20229;-61
2022/05/16 09:10:24;;;;;;;;;;;;;;;19.58;44.38;100635.00;1757372;80;20212;-63
2022/05/16 09:13:40;;;;;;;;;;;;;;;19.39;44.04;100629.95;1757782;80;20220;-62
2022/05/16 09:17:08;;;;;;;;;;;;;;;19.40;44.00;100620.53;1758752;81;20216;-65
2022/05/16 09:20:50;;;;;;;;;;;;;;;19.63;43.93;100615.73;1738235;80;20207;-61
2022/05/16 09:24:04;;;;;;;;;;;;;;;19.87;43.76;100607.33;1728317;83;20210;-66
2022/05/16 09:30:49;;;;;;;;;;;;;;;20.06;43.33;100619.33;1728733;82;20218;-60
2022/05/16 09:33:59;;;;;;;;;;;;;;;20.18;43.11;100625.30;1715045;81;20228;-62
2022/05/16 09:37:05;;;;;;;;;;;;;;;20.05;42.88;100617.61;1753879;81;20212;-64
2022/05/16 09:40:14;;;;;;;;;;;;;;;20.06;42.76;100616.55;1755856;81;20255;-61
2022/05/16 09:43:31;;;;;;;;;;;;;;;20.02;42.55;100606.42;1764881;80;20238;-65
2022/05/16 09:46:52;;;;;;;;;;;;;;;19.98;42.37;100609.34;1770287;81;20212;-64
2022/05/16 09:50:16;;;;;;;;;;;;;;;20.06;42.34;100606.26;1768367;81;20226;-62
2022/05/16 09:53:24;;;;;;;;;;;;;;;20.29;42.28;100600.89;1764767;80;20526;-61
2022/05/16 09:56:33;;;;;;;;;;;;;;;20.52;42.12;100597.34;1765034;81;20242;-61
2022/05/16 09:59:59;;;;;;;;;;;;;;;20.74;42.02;100600.77;1763963;81;20663;-63
2022/05/16 10:03:09;;;;;;;;;;;;;;;20.96;41.82;100587.72;1763194;80;20260;-64
2022/05/16 10:06:20;;;;;;;;;;;;;;;21.11;41.63;100598.73;1770771;80;20305;-63
2022/05/16 10:09:37;;;;;;;;;;;;;;;21.18;41.39;100607.84;1767005;80;20242;-66
2022/05/16 10:12:48;;;;;;;;;;;;;;;21.22;41.19;100611.83;1766677;80;20537;-63
2022/05/16 10:15:54;;;;;;;;;;;;;;;21.24;40.96;100583.74;1709760;83;20274;-65
2022/05/16 10:19:03;;;;;;;;;;;;;;;21.26;40.86;100586.61;1722953;82;20249;-65
2022/05/16 10:22:07;;;;;;;;;;;;;;;21.06;40.58;100586.07;1716769;82;20424;-63
2022/05/16 10:24:59;;;;;;;;;;;;;;;20.75;40.41;100602.49;1723008;82;20557;-64
2022/05/16 10:28:08;;;;;;;;;;;;;;;20.49;40.38;100585.30;1720951;82;20233;-64
2022/05/16 10:34:44;;;;;;;;;;;;;;;20.24;40.37;100594.31;1685658;84;20216;-62
2022/05/16 10:37:51;;;;;;;;;;;;;;;20.33;40.37;100581.78;1698924;84;20225;-62
2022/05/16 10:40:59;;;;;;;;;;;;;;;20.31;40.25;100579.80;1700920;82;20256;-65
2022/05/16 10:44:16;;;;;;;;;;;;;;;20.34;40.27;100580.16;1714389;79;20242;-61
2022/05/16 10:47:38;;;;;;;;;;;;;;;20.59;40.28;100560.56;1716038;81;20280;-62
2022/05/16 10:50:53;;;;;;;;;;;;;;;20.91;40.17;100567.56;1705315;82;20574;-60
2022/05/16 10:54:05;;;;;;;;;;;;;;;20.97;39.87;100560.21;1764214;80;20237;-60
2022/05/16 10:57:25;;;;;;;;;;;;;;;20.94;39.79;100566.23;1772635;79;20594;-61
2022/05/16 11:00:42;;;;;;;;;;;;;;;20.98;39.70;100560.53;1752143;80;20588;-61
2022/05/16 11:04:16;;;;;;;;;;;;;;;21.24;39.69;100558.14;1770508;80;20526;-60
2022/05/16 11:07:45;;;;;;;;;;;;;;;21.67;39.56;100550.28;1769452;80;20217;-61
2022/05/16 11:14:41;;;;;;;;;;;;;;;22.08;39.15;100564.59;1743417;81;20189;-57
2022/05/16 11:18:08;;;;;;;;;;;;;;;22.04;38.95;100545.28;1741052;82;20231;-57
2022/05/16 11:21:19;;;;;;;;;;;;;;;22.05;38.82;100558.97;1740127;82;20215;-58
2022/05/16 11:24:33;;;;;;;;;;;;;;;22.06;38.68;100551.43;1741074;82;20203;-59
2022/05/16 11:27:49;;;;;;;;;;;;;;;21.81;38.49;100548.95;1751416;80;20613;-60
2022/05/16 11:31:14;;;;;;;;;;;;;;;21.57;38.39;100554.21;1772194;80;20217;-62
2022/05/16 11:34:23;;;;;;;;;;;;;;;21.52;38.42;100548.52;1770517;81;20213;-62
2022/05/16 11:37:51;;;;;;;;;;;;;;;21.59;38.38;100549.25;1758733;81;20618;-62
2022/05/16 11:41:08;;;;;;;;;;;;;;;21.76;38.29;100541.01;1742243;81;20451;-61
2022/05/16 11:44:17;;;;;;;;;;;;;;;21.80;38.12;100534.70;1771258;79;20209;-61
2022/05/16 11:47:29;;;;;;;;;;;;;;;21.81;38.02;100535.55;1772097;81;20830;-61
2022/05/16 11:50:40;;;;;;;;;;;;;;;21.74;37.88;100537.05;1771594;81;20246;-61
2022/05/16 11:53:54;;;;;;;;;;;;;;;21.78;37.81;100548.05;1772852;81;20452;-61
2022/05/16 12:00:34;;;;;;;;;;;;;;;21.74;37.57;100523.11;1746759;81;20214;-59
2022/05/16 12:03:50;;;;;;;;;;;;;;;21.60;37.44;100524.47;1771833;81;20205;-60
2022/05/16 12:06:58;;;;;;;;;;;;;;;21.62;37.44;100524.22;1759916;81;20563;-62
2022/05/16 12:10:08;;;;;;;;;;;;;;;21.53;37.34;100510.37;1769891;80;20585;-62
2022/05/16 12:13:39;;;;;;;;;;;;;;;21.37;37.23;100525.03;1755045;81;20237;-60
2022/05/16 12:17:02;;;;;;;;;;;;;;;21.22;37.15;100519.94;1760060;81;20218;-60
2022/05/16 12:20:09;;;;;;;;;;;;;;;21.05;37.08;100517.57;1764209;81;20198;-61
2022/05/16 12:23:17;;;;;;;;;;;;;;;20.99;37.04;100510.19;1693424;82;20255;-62
2022/05/16 12:26:39;;;;;;;;;;;;;;;21.12;37.08;100514.11;1735225;82;20558;-64
2022/05/16 12:29:56;;;;;;;;;;;;;;;21.37;36.99;100517.53;1736488;82;20234;-62
2022/05/16 12:33:03;;;;;;;;;;;;;;;21.53;36.89;100511.19;1735953;82;20509;-63
2022/05/16 12:36:09;;;;;;;;;;;;;;;21.63;36.78;100505.86;1754997;81;20838;-61
2022/05/16 12:39:24;;;;;;;;;;;;;;;21.62;36.64;100506.97;1771573;81;20650;-60
2022/05/16 12:42:47;;;;;;;;;;;;;;;21.54;36.52;100503.69;1761660;81;20212;-62
2022/05/16 12:46:23;;;;;;;;;;;;;;;21.54;36.50;100494.80;1743387;80;20632;-61
2022/05/16 12:49:55;;;;;;;;;;;;;;;21.78;36.46;100481.16;1757261;81;20747;-63
2022/05/16 12:53:28;;;;;;;;;;;;;;;22.06;36.39;100494.27;1729281;80;20198;-61
2022/05/16 12:56:40;;;;;;;;;;;;;;;21.97;36.20;100482.68;1706013;83;20220;-61
2022/05/16 12:59:57;;;;;;;;;;;;;;;21.72;36.07;100478.47;1759554;80;20212;-61
2022/05/16 13:03:12;;;;;;;;;;;;;;;21.42;36.04;100482.80;1771377;81;20540;-63
2022/05/16 13:06:45;;;;;;;;;;;;;;;21.10;36.00;100480.65;1752708;81;20218;-56
2022/05/16 13:09:56;;;;;;;;;;;;;;;20.89;36.03;100474.23;1741205;82;20260;-58
2022/05/16 13:13:20;;;;;;;;;;;;;;;20.79;36.01;100472.91;1740416;81;20259;-55
2022/05/16 13:16:38;;;;;;;;;;;;;;;20.78;36.00;100475.94;1740795;82;20232;-58
2022/05/16 13:19:49;;;;;;;;;;;;;;;20.77;35.98;100467.30;1741225;82;20211;-57
2022/05/16 13:22:56;;;;;;;;;;;;;;;20.79;35.94;100466.48;1765298;81;20249;-54
2022/05/16 13:29:33;;;;;;;;;;;;;;;21.18;35.94;100464.98;1770691;81;20201;-57
2022/05/16 13:32:36;;;;;;;;;;;;;;;21.43;35.78;100462.77;1770787;81;20249;-56
2022/05/16 13:35:45;;;;;;;;;;;;;;;21.52;35.67;100463.54;1771635;80;20256;-57
2022/05/16 13:38:49;;;;;;;;;;;;;;;21.43;35.56;100462.23;1771036;81;20201;-57
2022/05/16 13:42:09;;;;;;;;;;;;;;;21.23;35.56;100463.14;1772146;81;20206;-59
2022/05/16 13:45:18;;;;;;;;;;;;;;;21.18;35.59;100458.02;1772611;80;20269;-55
2022/05/16 13:48:24;;;;;;;;;;;;;;;21.27;35.57;100462.97;1773415;80;20636;-54
2022/05/16 13:51:29;;;;;;;;;;;;;;;21.33;35.49;100458.34;1772696;81;20218;-55
2022/05/16 13:54:41;;;;;;;;;;;;;;;21.37;35.44;100460.43;1770458;81;20238;-59
2022/05/16 13:57:48;;;;;;;;;;;;;;;21.41;35.47;100463.02;1768447;81;20236;-55
2022/05/16 14:01:01;;;;;;;;;;;;;;;21.40;35.42;100462.72;1762887;81;20209;-55
2022/05/16 14:04:11;;;;;;;;;;;;;;;21.23;35.36;100454.78;1668884;84;20222;-59
2022/05/16 14:07:30;;;;;;;;;;;;;;;21.09;35.38;100466.44;1697566;83;20251;-58
2022/05/16 14:10:38;;;;;;;;;;;;;;;21.00;35.38;100465.08;1721260;83;20202;-56
2022/05/16 14:13:44;;;;;;;;;;;;;;;20.85;35.40;100459.98;1720529;83;20568;-59
2022/05/16 14:16:50;;;;;;;;;;;;;;;20.72;35.41;100460.20;1720662;83;20206;-58
2022/05/16 14:19:54;;;;;;;;;;;;;;;20.60;35.50;100456.53;1717758;83;20238;-57
2022/05/16 14:23:03;;;;;;;;;;;;;;;20.60;35.50;100450.44;1671117;84;20653;-56
2022/05/16 14:26:26;;;;;;;;;;;;;;;20.63;35.51;100452.73;1705838;84;20513;-56
2022/05/16 14:29:36;;;;;;;;;;;;;;;20.88;35.49;100455.33;1707045;82;20535;-59
2022/05/16 14:32:43;;;;;;;;;;;;;;;21.10;35.41;100462.55;1733429;83;20582;-57
2022/05/16 14:35:47;;;;;;;;;;;;;;;21.12;35.37;100452.03;1733916;83;20214;-57
2022/05/16 14:38:57;;;;;;;;;;;;;;;21.01;35.35;100440.35;1735804;82;20596;-58
2022/05/16 14:42:15;;;;;;;;;;;;;;;20.89;35.38;100435.28;1736213;82;20582;-58
2022/05/16 14:46:42;;;;;;;;;;;;;;;20.75;35.42;100434.67;1722447;82;20415;-57
2022/05/16 14:48:30;;;;;;;;;;;;;;;20.62;35.50;100435.75;1697806;83;20214;-58
2022/05/16 14:51:38;;;;;;;;;;;;;;;20.58;35.57;100430.34;1726019;83;20218;-58
2022/05/16 14:54:47;;;;;;;;;;;;;;;20.57;35.53;100427.80;1772239;80;20233;-58
2022/05/16 14:57:53;;;;;;;;;;;;;;;20.46;35.60;100416.98;1763754;80;20202;-57
2022/05/16 15:04:23;;;;;;;;;;;;;;;20.31;35.67;100422.12;1741767;82;20200;-60
2022/05/16 15:07:30;;;;;;;;;;;;;;;20.22;35.71;100416.61;1741000;82;20553;-59
2022/05/16 15:10:37;;;;;;;;;;;;;;;20.09;35.76;100420.12;1741998;82;20215;-58
2022/05/16 15:13:42;;;;;;;;;;;;;;;19.97;35.79;100417.29;1741153;82;20615;-57
2022/05/16 15:16:49;;;;;;;;;;;;;;;19.92;35.85;100421.84;1742173;81;20204;-59
2022/05/16 15:19:53;;;;;;;;;;;;;;;19.97;35.92;100417.29;1767926;80;20198;-60
2022/05/16 15:22:57;;;;;;;;;;;;;;;20.26;35.94;100410.04;1766498;80;20822;-58
2022/05/16 15:26:03;;;;;;;;;;;;;;;20.51;35.92;100405.12;1772796;80;20201;-56
2022/05/16 15:29:07;;;;;;;;;;;;;;;20.99;35.92;100404.41;1772796;80;20249;-56
2022/05/16 15:32:14;;;;;;;;;;;;;;;21.22;35.66;100404.38;1771842;80;20574;-59
2022/05/16 15:35:21;;;;;;;;;;;;;;;21.13;35.65;100404.98;1773610;80;20229;-55
2022/05/16 15:38:28;;;;;;;;;;;;;;;21.09;35.61;100410.19;1772721;80;20209;-59
2022/05/16 15:41:33;;;;;;;;;;;;;;;21.06;35.51;100400.11;1771716;80;20232;-58
2022/05/16 15:44:40;;;;;;;;;;;;;;;20.95;35.54;100400.37;1759314;80;20216;-57
2022/05/16 15:47:50;;;;;;;;;;;;;;;20.84;35.58;100404.00;1738157;81;20212;-57
2022/05/16 15:50:56;;;;;;;;;;;;;;;20.79;35.71;100408.05;1737466;82;20244;-57
2022/05/16 15:54:04;;;;;;;;;;;;;;;21.22;35.64;100398.80;1769253;81;20205;-59
2022/05/16 15:57:09;;;;;;;;;;;;;;;22.00;35.26;100402.72;1762055;81;20217;-60
2022/05/16 16:00:15;;;;;;;;;;;;;;;22.87;34.61;100398.95;1773843;81;20253;-58
2022/05/16 16:10:21;;;;;;;;;;;;;;;23.99;33.54;100410.88;1759046;80;20212;-58
2022/05/16 16:13:29;;;;;;;;;;;;;;;23.85;33.54;100403.98;1766316;80;20240;-58
2022/05/16 16:16:34;;;;;;;;;;;;;;;24.01;33.24;100405.02;1753977;81;20189;-57
2022/05/16 16:19:42;;;;;;;;;;;;;;;23.56;33.22;100406.71;1759866;80;20211;-58
2022/05/16 16:22:51;;;;;;;;;;;;;;;22.78;33.41;100413.05;1768184;80;20704;-54
2022/05/16 16:25:58;;;;;;;;;;;;;;;22.03;33.67;100412.52;1768889;81;20213;-58
2022/05/16 16:29:03;;;;;;;;;;;;;;;21.56;33.86;100414.61;1765608;80;20209;-57
2022/05/16 16:32:10;;;;;;;;;;;;;;;21.18;34.00;100414.85;1768748;81;20275;-58
2022/05/16 16:35:15;;;;;;;;;;;;;;;20.83;34.10;100403.14;1762886;80;20182;-57
2022/05/16 16:38:22;;;;;;;;;;;;;;;20.62;34.18;100412.11;1766000;80;20526;-57
2022/05/16 16:41:28;;;;;;;;;;;;;;;20.40;34.19;100404.56;1769207;80;20649;-59
2022/05/16 16:44:35;;;;;;;;;;;;;;;20.22;34.26;100408.80;1769599;80;20218;-57
2022/05/16 16:47:44;;;;;;;;;;;;;;;19.98;34.25;100403.69;1769186;81;20210;-59
2022/05/16 16:50:51;;;;;;;;;;;;;;;19.75;34.27;100412.47;1772711;81;20621;-59
2022/05/16 16:57:31;;;;;;;;;;;;;;;19.33;34.35;100421.79;1767080;81;20249;-59
2022/05/16 17:00:39;;;;;;;;;;;;;;;19.13;34.36;100422.83;1767437;81;20612;-58
2022/05/16 17:03:44;;;;;;;;;;;;;;;18.94;34.39;100421.11;1758486;81;20212;-59
2022/05/16 17:06:51;;;;;;;;;;;;;;;18.79;34.41;100431.70;1761416;81;20255;-59
2022/05/16 17:09:59;;;;;;;;;;;;;;;18.62;34.40;100433.36;1771797;81;20660;-60
2022/05/16 17:13:04;;;;;;;;;;;;;;;18.46;34.41;100431.14;1744816;81;20556;-58